createdAt,value
2023-04-14T00:00:09.049Z,89.56
2023-04-14T00:02:45.126Z,90.01
2023-04-14T00:05:15.464Z,89.27
2023-04-14T00:07:44.329Z,90.06
2023-04-14T00:10:13.323Z,90.01
2023-04-14T00:12:42.011Z,89.65
2023-04-14T00:15:11.628Z,89.77
2023-04-14T00:17:40.286Z,89.68
2023-04-14T00:20:10.570Z,89.86
2023-04-14T00:22:40.874Z,89.71
2023-04-14T00:25:10.275Z,90.06
2023-04-14T00:27:38.962Z,89.28
2023-04-14T00:30:08.862Z,89.50
2023-04-14T00:32:38.174Z,88.96
2023-04-14T00:35:07.550Z,89.86
2023-04-14T00:37:36.308Z,89.11
2023-04-14T00:40:10.231Z,89.02
2023-04-14T00:42:44.819Z,88.92
2023-04-14T00:45:14.340Z,89.23
2023-04-14T00:47:47.385Z,89.57
2023-04-14T00:50:18.186Z,88.79
2023-04-14T00:52:49.570Z,89.62
2023-04-14T00:55:20.681Z,89.37
2023-04-14T00:57:50.233Z,89.26
2023-04-14T01:00:19.417Z,88.90
2023-04-14T01:02:48.340Z,88.63
2023-04-14T01:05:17.215Z,88.42
2023-04-14T01:07:49.728Z,89.26
2023-04-14T01:10:20.102Z,89.21
2023-04-14T01:13:12.161Z,88.85
2023-04-14T01:15:48.903Z,88.97
2023-04-14T01:18:23.530Z,88.13
2023-04-14T01:20:58.258Z,88.16
2023-04-14T01:23:29.010Z,89.01
2023-04-14T01:26:20.490Z,88.76
2023-04-14T01:29:16.183Z,88.97
2023-04-14T01:31:50.589Z,88.12
2023-04-14T01:34:25.074Z,88.37
2023-04-14T01:36:58.739Z,88.61
2023-04-14T01:39:36.396Z,89.11
2023-04-14T01:42:08.966Z,88.82
2023-04-14T01:44:40.757Z,88.79
2023-04-14T01:47:15.191Z,88.78
2023-04-14T01:49:47.708Z,88.38
2023-04-14T01:52:19.245Z,88.48
2023-04-14T01:54:52.454Z,88.86
2023-04-14T01:57:23.183Z,87.89
2023-04-14T01:59:56.500Z,88.01
2023-04-14T02:02:28.412Z,87.99
2023-04-14T02:04:59.197Z,87.71
2023-04-14T02:07:30.022Z,87.68
2023-04-14T02:10:01.417Z,87.82
2023-04-14T02:12:32.172Z,88.04
2023-04-14T02:15:03.809Z,87.55
2023-04-14T02:17:35.253Z,87.26
2023-04-14T02:20:04.386Z,87.52
2023-04-14T02:22:33.099Z,87.64
2023-04-14T02:25:03.731Z,87.71
2023-04-14T02:27:39.852Z,87.31
2023-04-14T02:30:13.350Z,87.44
2023-04-14T02:32:48.693Z,87.68
2023-04-14T02:35:22.235Z,87.14
2023-04-14T02:37:57.407Z,87.16
2023-04-14T02:40:29.218Z,87.33
2023-04-14T02:43:04.133Z,86.91
2023-04-14T02:45:37.737Z,87.02
2023-04-14T02:48:13.120Z,86.73
2023-04-14T02:50:46.974Z,86.44
2023-04-14T02:53:23.283Z,86.53
2023-04-14T02:55:58.612Z,86.30
2023-04-14T02:58:31.339Z,86.39
2023-04-14T03:01:02.143Z,85.97
2023-04-14T03:03:37.885Z,86.61
2023-04-14T03:06:10.733Z,86.00
2023-04-14T03:08:40.744Z,86.56
2023-04-14T03:11:09.794Z,86.32
2023-04-14T03:13:41.259Z,86.86
2023-04-14T03:16:13.432Z,86.77
2023-04-14T03:18:45.334Z,86.31
2023-04-14T03:21:18.865Z,86.27
2023-04-14T03:23:53.084Z,86.40
2023-04-14T03:26:26.522Z,86.54
2023-04-14T03:28:56.599Z,86.68
2023-04-14T03:31:34.187Z,86.66
2023-04-14T03:34:08.471Z,86.74
2023-04-14T03:36:45.173Z,87.07
2023-04-14T03:39:17.111Z,87.36
2023-04-14T03:41:51.810Z,87.23
2023-04-14T03:44:23.944Z,87.12
2023-04-14T03:46:54.914Z,86.89
2023-04-14T03:49:29.080Z,87.25
2023-04-14T03:52:02.991Z,86.86
2023-04-14T03:54:33.940Z,87.12
2023-04-14T03:57:06.393Z,86.46
2023-04-14T03:59:38.243Z,87.32
2023-04-14T04:02:10.655Z,86.84
2023-04-14T04:04:43.611Z,86.67
2023-04-14T04:07:15.043Z,87.14
2023-04-14T04:09:46.751Z,87.68
2023-04-14T04:12:18.509Z,87.85
2023-04-14T04:14:47.632Z,87.47
2023-04-14T04:17:21.037Z,87.93
2023-04-14T04:19:52.664Z,88.11
2023-04-14T04:22:23.275Z,87.65
2023-04-14T04:24:53.232Z,87.84
2023-04-14T04:27:28.741Z,87.69
2023-04-14T04:30:09.847Z,87.91
2023-04-14T04:32:40.265Z,88.10
2023-04-14T04:35:13.854Z,87.85
2023-04-14T04:37:44.980Z,87.95
2023-04-14T04:40:14.730Z,88.21
2023-04-14T04:42:43.629Z,88.25
2023-04-14T04:45:37.936Z,87.72
2023-04-14T04:48:07.373Z,87.83
2023-04-14T04:50:37.524Z,87.84
2023-04-14T04:53:06.653Z,87.80
2023-04-14T04:55:35.404Z,87.59
2023-04-14T04:58:04.238Z,88.21
2023-04-14T05:00:33.174Z,87.34
2023-04-14T05:03:02.017Z,88.05
2023-04-14T05:05:30.836Z,87.43
2023-04-14T05:08:01.228Z,87.85
2023-04-14T05:10:29.988Z,87.91
2023-04-14T05:12:58.643Z,87.37
2023-04-14T05:15:27.553Z,87.34
2023-04-14T05:17:56.216Z,87.64
2023-04-14T05:20:24.977Z,87.24
2023-04-14T05:22:53.663Z,87.61
2023-04-14T05:25:23.881Z,87.68
2023-04-14T05:27:52.674Z,86.80
2023-04-14T05:30:21.517Z,87.03
2023-04-14T05:32:50.610Z,86.92
2023-04-14T05:35:19.387Z,87.15
2023-04-14T05:37:48.341Z,86.71
2023-04-14T05:40:16.969Z,86.84
2023-04-14T05:42:47.118Z,87.06
2023-04-14T05:45:16.076Z,87.30
2023-04-14T05:47:44.757Z,87.16
2023-04-14T05:50:14.290Z,86.94
2023-04-14T05:52:42.932Z,86.88
2023-04-14T05:55:12.505Z,86.78
2023-04-14T05:57:41.036Z,86.98
2023-04-14T06:00:12.719Z,87.14
2023-04-14T06:02:42.537Z,87.00
2023-04-14T06:05:13.388Z,87.29
2023-04-14T06:07:42.415Z,87.29
2023-04-14T06:10:12.227Z,87.91
2023-04-14T06:12:41.241Z,87.66
2023-04-14T06:15:11.697Z,87.40
2023-04-14T06:17:41.372Z,88.02
2023-04-14T06:20:11.457Z,88.30
2023-04-14T06:22:40.713Z,88.12
2023-04-14T06:25:11.239Z,88.25
2023-04-14T06:27:39.854Z,88.05
2023-04-14T06:30:11.090Z,87.88
2023-04-14T06:32:39.876Z,87.96
2023-04-14T06:35:12.191Z,87.80
2023-04-14T06:37:45.470Z,87.86
2023-04-14T06:40:14.712Z,87.74
2023-04-14T06:42:43.506Z,87.71
2023-04-14T06:45:13.820Z,88.15
2023-04-14T06:47:42.523Z,87.68
2023-04-14T06:50:12.479Z,88.03
2023-04-14T06:52:41.208Z,88.12
2023-04-14T06:55:10.835Z,88.11
2023-04-14T06:57:39.604Z,88.78
2023-04-14T07:00:11.073Z,88.74
2023-04-14T07:02:51.267Z,88.46
2023-04-14T07:05:20.019Z,88.78
2023-04-14T07:07:48.508Z,89.06
2023-04-14T07:10:19.119Z,88.90
2023-04-14T07:12:47.734Z,89.17
2023-04-14T07:15:16.330Z,89.15
2023-04-14T07:17:44.924Z,88.87
2023-04-14T07:20:15.297Z,89.06
2023-04-14T07:22:44.380Z,88.76
2023-04-14T07:25:12.958Z,88.71
2023-04-14T07:27:52.783Z,88.62
2023-04-14T07:30:30.022Z,88.81
2023-04-14T07:32:58.833Z,88.95
2023-04-14T07:35:28.960Z,88.75
2023-04-14T07:37:57.588Z,88.55
2023-04-14T07:40:27.070Z,88.48
2023-04-14T07:42:58.193Z,88.19
2023-04-14T07:45:26.852Z,88.07
2023-04-14T07:47:57.565Z,88.11
2023-04-14T07:50:27.061Z,87.89
2023-04-14T07:52:57.250Z,87.85
2023-04-14T07:55:27.484Z,87.74
2023-04-14T07:57:57.069Z,87.63
2023-04-14T08:00:26.803Z,87.20
2023-04-14T08:02:55.597Z,87.23
2023-04-14T08:05:24.898Z,86.97
2023-04-14T08:07:53.598Z,86.87
2023-04-14T08:10:23.708Z,86.62
2023-04-14T08:12:52.996Z,86.35
2023-04-14T08:15:21.876Z,86.21
2023-04-14T08:17:50.471Z,85.97
2023-04-14T08:20:19.500Z,85.88
2023-04-14T08:22:48.444Z,85.35
2023-04-14T08:25:17.099Z,85.21
2023-04-14T08:27:47.392Z,84.24
2023-04-14T08:30:16.687Z,84.49
2023-04-14T08:32:45.725Z,83.57
2023-04-14T08:35:38.313Z,82.58
2023-04-14T08:38:03.425Z,81.83
2023-04-14T08:40:38.663Z,81.38
2023-04-14T08:43:08.997Z,80.80
2023-04-14T08:45:38.202Z,80.19
2023-04-14T08:48:07.285Z,79.84
2023-04-14T08:50:38.935Z,79.50
2023-04-14T08:53:11.225Z,79.46
2023-04-14T08:55:42.513Z,79.40
2023-04-14T08:58:12.847Z,79.27
2023-04-14T09:00:41.911Z,78.53
2023-04-14T09:03:11.284Z,78.18
2023-04-14T09:05:41.252Z,77.90
2023-04-14T09:08:09.970Z,78.04
2023-04-14T09:10:41.183Z,77.96
2023-04-14T09:13:11.981Z,77.59
2023-04-14T09:15:42.488Z,77.37
2023-04-14T09:18:12.502Z,77.14
2023-04-14T09:20:41.974Z,77.35
2023-04-14T09:23:10.954Z,77.46
2023-04-14T09:25:40.735Z,77.44
2023-04-14T09:28:09.267Z,77.08
2023-04-14T09:30:38.019Z,77.49
2023-04-14T09:33:09.286Z,77.42
2023-04-14T09:35:47.602Z,77.63
2023-04-14T09:38:17.638Z,77.71
2023-04-14T09:40:46.242Z,78.10
2023-04-14T09:43:27.241Z,78.57
2023-04-14T09:45:57.109Z,78.65
2023-04-14T09:48:28.824Z,78.56
2023-04-14T09:51:00.140Z,78.30
2023-04-14T09:53:30.727Z,77.42
2023-04-14T09:56:02.957Z,76.61
2023-04-14T09:58:32.864Z,76.75
2023-04-14T10:01:04.794Z,76.87
2023-04-14T10:03:36.281Z,76.54
2023-04-14T10:06:08.223Z,76.77
2023-04-14T10:08:39.524Z,76.88
2023-04-14T10:11:19.563Z,77.21
2023-04-14T10:13:49.913Z,77.06
2023-04-14T10:16:19.160Z,76.81
2023-04-14T10:18:49.309Z,75.98
2023-04-14T10:21:18.329Z,76.01
2023-04-14T10:23:47.339Z,75.87
2023-04-14T10:26:17.301Z,75.64
2023-04-14T10:28:48.217Z,75.15
2023-04-14T10:31:23.981Z,74.68
2023-04-14T10:33:55.510Z,75.38
2023-04-14T10:36:28.137Z,75.14
2023-04-14T10:39:02.325Z,75.05
2023-04-14T10:41:46.214Z,74.20
2023-04-14T10:44:27.549Z,74.29
2023-04-14T10:46:57.224Z,74.43
2023-04-14T10:49:31.470Z,73.73
2023-04-14T10:52:02.542Z,73.55
2023-04-14T10:54:50.133Z,73.91
2023-04-14T10:57:20.460Z,74.33
2023-04-14T10:59:49.368Z,73.92
2023-04-14T11:02:30.509Z,74.24
2023-04-14T11:05:05.265Z,74.26
2023-04-14T11:07:41.286Z,73.93
2023-04-14T11:10:28.078Z,73.83
2023-04-14T11:12:58.691Z,74.74
2023-04-14T11:15:45.461Z,74.91
2023-04-14T11:18:16.515Z,75.14
2023-04-14T11:23:17.364Z,75.31
2023-04-14T11:25:46.322Z,75.14
2023-04-14T11:28:15.084Z,74.55
2023-04-14T11:30:44.797Z,74.09
2023-04-14T11:33:16.771Z,73.25
2023-04-14T11:35:47.061Z,72.74
2023-04-14T11:38:16.455Z,71.83
2023-04-14T11:40:50.648Z,70.37
2023-04-14T11:43:21.460Z,70.08
2023-04-14T11:45:53.545Z,70.15
2023-04-14T11:48:22.268Z,70.31
2023-04-14T11:50:52.369Z,70.65
2023-04-14T11:53:21.514Z,72.15
2023-04-14T11:55:52.089Z,73.89
2023-04-14T11:58:23.995Z,75.42
2023-04-14T12:00:55.490Z,76.15
2023-04-14T12:03:29.460Z,77.32
2023-04-14T12:06:01.649Z,78.53
2023-04-14T12:08:32.359Z,79.14
2023-04-14T12:11:14.660Z,79.78
2023-04-14T12:13:44.674Z,80.46
2023-04-14T12:16:14.357Z,80.93
2023-04-14T12:18:43.298Z,81.39
2023-04-14T12:21:19.732Z,81.87
2023-04-14T12:23:50.005Z,82.31
2023-04-14T12:26:19.712Z,82.56
2023-04-14T12:28:56.599Z,82.86
2023-04-14T12:31:30.053Z,82.81
2023-04-14T12:34:03.806Z,83.26
2023-04-14T12:36:48.561Z,83.35
2023-04-14T12:39:18.389Z,83.88
2023-04-14T12:41:47.274Z,84.34
2023-04-14T12:44:20.725Z,84.25
2023-04-14T12:46:50.746Z,84.50
2023-04-14T12:49:30.478Z,84.64
2023-04-14T12:52:01.326Z,85.03
2023-04-14T12:54:52.381Z,85.18
2023-04-14T12:57:22.329Z,85.58
2023-04-14T12:59:52.249Z,86.03
2023-04-14T13:02:20.778Z,86.05
2023-04-14T13:04:49.822Z,86.54
2023-04-14T13:07:20.321Z,86.95
2023-04-14T13:09:49.175Z,87.01
2023-04-14T13:12:17.904Z,87.22
2023-04-14T13:14:46.667Z,87.36
2023-04-14T13:17:15.287Z,87.23
2023-04-14T13:19:44.057Z,87.34
2023-04-14T13:22:13.082Z,87.57
2023-04-14T13:24:43.125Z,87.95
2023-04-14T13:27:12.216Z,88.05
2023-04-14T13:29:42.198Z,88.21
2023-04-14T13:32:11.827Z,88.72
2023-04-14T13:34:41.349Z,88.88
2023-04-14T13:37:10.075Z,89.07
2023-04-14T13:39:38.884Z,89.04
2023-04-14T13:42:09.023Z,89.25
2023-04-14T13:44:37.844Z,89.32
2023-04-14T13:47:06.560Z,89.38
2023-04-14T13:49:35.329Z,89.39
2023-04-14T13:52:03.962Z,89.13
2023-04-14T13:54:32.676Z,89.62
2023-04-14T13:57:01.347Z,89.93
2023-04-14T13:59:31.429Z,90.06
2023-04-14T14:02:00.361Z,90.05
2023-04-14T14:04:29.194Z,90.18
2023-04-14T14:06:58.031Z,90.49
2023-04-14T14:09:26.700Z,90.65
2023-04-14T14:11:56.260Z,90.63
2023-04-14T14:14:24.960Z,90.67
2023-04-14T14:16:55.386Z,90.83
2023-04-14T14:19:24.329Z,90.72
2023-04-14T14:21:52.928Z,90.66
2023-04-14T14:24:21.819Z,90.67
2023-04-14T14:26:50.527Z,90.69
2023-04-14T14:29:19.309Z,90.73
2023-04-14T14:31:47.869Z,90.80
2023-04-14T14:34:18.086Z,90.75
2023-04-14T14:36:46.853Z,90.86
2023-04-14T14:39:15.729Z,90.70
2023-04-14T14:41:44.480Z,90.88
2023-04-14T14:44:13.310Z,90.77
2023-04-14T14:46:42.281Z,90.94
2023-04-14T14:49:11.617Z,90.67
2023-04-14T14:51:41.779Z,90.37
2023-04-14T14:54:10.725Z,89.75
2023-04-14T14:56:39.622Z,89.73
2023-04-14T14:59:09.361Z,89.45
2023-04-14T15:01:38.079Z,88.75
2023-04-14T15:04:07.802Z,88.22
2023-04-14T15:06:37.648Z,87.62
2023-04-14T15:09:08.015Z,86.99
2023-04-14T15:11:36.892Z,86.42
2023-04-14T15:14:06.394Z,85.66
2023-04-14T15:16:35.189Z,85.45
2023-04-14T15:19:04.316Z,85.07
2023-04-14T15:21:34.454Z,84.94
2023-04-14T15:24:03.345Z,84.63
2023-04-14T15:26:33.899Z,84.46
2023-04-14T15:29:02.742Z,84.75
2023-04-14T15:31:31.533Z,85.00
2023-04-14T15:34:02.164Z,85.54
2023-04-14T15:36:33.224Z,85.91
2023-04-14T15:39:02.354Z,86.42
2023-04-14T15:41:31.115Z,86.70
2023-04-14T15:44:01.498Z,87.00
2023-04-14T15:46:30.537Z,87.08
2023-04-14T15:48:59.226Z,87.21
2023-04-14T15:51:28.748Z,87.47
2023-04-14T15:53:57.772Z,87.46
2023-04-14T15:56:27.290Z,87.74
2023-04-14T15:58:56.396Z,87.93
2023-04-14T16:01:26.655Z,88.12
2023-04-14T16:03:55.755Z,88.46
2023-04-14T16:06:28.988Z,88.50
2023-04-14T16:08:58.052Z,88.46
2023-04-14T16:11:26.714Z,88.84
2023-04-14T16:13:55.725Z,88.73
2023-04-14T16:16:25.589Z,88.69
2023-04-14T16:18:55.438Z,88.48
2023-04-14T16:21:24.150Z,88.55
2023-04-14T16:23:53.209Z,88.94
2023-04-14T16:26:21.796Z,88.95
2023-04-14T16:28:50.616Z,89.25
2023-04-14T16:31:19.313Z,89.54
2023-04-14T16:33:48.427Z,89.51
2023-04-14T16:36:19.447Z,89.49
2023-04-14T16:38:49.252Z,89.77
2023-04-14T16:41:17.600Z,90.08
2023-04-14T16:43:46.635Z,90.00
2023-04-14T16:46:15.727Z,89.91
2023-04-14T16:48:44.552Z,90.10
2023-04-14T16:51:13.231Z,90.23
2023-04-14T16:53:44.430Z,89.94
2023-04-14T16:56:13.362Z,90.11
2023-04-14T16:58:42.025Z,89.94
2023-04-14T17:01:10.866Z,90.32
2023-04-14T17:03:39.684Z,91.19
2023-04-14T17:06:08.563Z,91.46
2023-04-14T17:08:37.218Z,90.79
2023-04-14T17:11:07.379Z,90.97
2023-04-14T17:13:36.091Z,91.45
2023-04-14T17:16:08.950Z,91.88
2023-04-14T17:18:38.857Z,91.81
2023-04-14T17:21:08.150Z,92.18
2023-04-14T17:23:38.160Z,91.36
2023-04-14T17:26:08.910Z,91.86
2023-04-14T17:28:39.067Z,91.90
2023-04-14T17:31:12.807Z,92.19
2023-04-14T17:33:42.563Z,92.55
2023-04-14T17:36:14.604Z,92.01
2023-04-14T17:38:44.978Z,92.38
2023-04-14T17:41:15.327Z,92.54
2023-04-14T17:43:43.993Z,92.16
2023-04-14T17:46:14.162Z,92.07
2023-04-14T17:48:43.039Z,92.62
2023-04-14T17:51:12.127Z,92.46
2023-04-14T17:53:41.144Z,92.84
2023-04-14T17:56:11.706Z,91.81
2023-04-14T17:58:41.897Z,91.83
2023-04-14T18:01:10.743Z,92.61
2023-04-14T18:03:39.600Z,92.24
2023-04-14T18:06:09.534Z,92.56
2023-04-14T18:08:38.387Z,92.39
2023-04-14T18:11:07.344Z,92.29
2023-04-14T18:13:36.307Z,93.02
2023-04-14T18:16:08.160Z,92.77
2023-04-14T18:18:38.697Z,92.72
2023-04-14T18:21:08.232Z,92.12
2023-04-14T18:23:38.406Z,92.90
2023-04-14T18:28:40.271Z,92.54
2023-04-14T18:31:13.584Z,92.87
2023-04-14T18:33:42.868Z,92.24
2023-04-14T18:36:11.669Z,92.51
2023-04-14T18:38:40.398Z,92.89
2023-04-14T18:41:10.640Z,92.56
2023-04-14T18:43:39.428Z,93.18
2023-04-14T18:46:09.593Z,92.92
2023-04-14T18:48:38.538Z,93.11
2023-04-14T18:51:10.377Z,93.00
2023-04-14T18:53:42.023Z,92.98
2023-04-14T18:56:11.279Z,92.86
2023-04-14T18:58:40.166Z,92.35
2023-04-14T19:01:11.168Z,92.28
2023-04-14T19:03:40.082Z,92.45
2023-04-14T19:06:08.816Z,92.15
2023-04-14T19:08:37.981Z,91.95
2023-04-14T19:11:07.556Z,92.21
2023-04-14T19:13:36.956Z,92.57
2023-04-14T19:16:08.637Z,92.51
2023-04-14T19:18:39.221Z,92.71
2023-04-14T19:21:09.205Z,92.39
2023-04-14T19:23:38.554Z,92.67
2023-04-14T19:26:08.545Z,92.54
2023-04-14T19:28:40.106Z,92.52
2023-04-14T19:31:09.129Z,92.64
2023-04-14T19:33:39.366Z,92.24
2023-04-14T19:36:14.133Z,91.87
2023-04-14T19:38:43.028Z,91.73
2023-04-14T19:41:15.114Z,91.71
2023-04-14T19:43:43.955Z,91.37
2023-04-14T19:46:13.811Z,91.43
2023-04-14T19:48:45.505Z,90.89
2023-04-14T19:51:17.289Z,90.96
2023-04-14T19:53:48.374Z,90.58
2023-04-14T19:56:17.074Z,91.18
2023-04-14T19:58:45.989Z,90.67
2023-04-14T20:01:15.205Z,90.48
2023-04-14T20:04:07.659Z,90.43
2023-04-14T20:06:34.608Z,90.37
2023-04-14T20:09:04.281Z,90.37
2023-04-14T20:11:33.338Z,90.83
2023-04-14T20:14:02.169Z,90.67
2023-04-14T20:16:31.058Z,90.47
2023-04-14T20:19:01.886Z,90.54
2023-04-14T20:21:30.832Z,89.83
2023-04-14T20:23:59.517Z,90.16
2023-04-14T20:26:28.812Z,89.62
2023-04-14T20:28:57.452Z,89.94
2023-04-14T20:31:26.973Z,90.30
2023-04-14T20:33:56.372Z,90.04
2023-04-14T20:36:26.730Z,90.00
2023-04-14T20:38:55.561Z,89.91
2023-04-14T20:41:24.319Z,90.10
2023-04-14T20:43:53.094Z,90.16
2023-04-14T20:46:22.388Z,90.77
2023-04-14T20:48:51.203Z,90.09
2023-04-14T20:51:20.036Z,89.74
2023-04-14T20:53:50.994Z,89.45
2023-04-14T20:56:19.662Z,89.64
2023-04-14T20:58:48.408Z,89.69
2023-04-14T21:01:17.394Z,89.73
2023-04-14T21:03:46.140Z,89.26
2023-04-14T21:06:15.114Z,88.89
2023-04-14T21:08:44.113Z,88.93
2023-04-14T21:11:18.266Z,88.92
2023-04-14T21:15:27.162Z,89.00
2023-04-14T21:16:37.234Z,88.73
2023-04-14T21:19:06.721Z,88.42
2023-04-14T21:21:35.954Z,88.60
2023-04-14T21:24:05.076Z,88.44
2023-04-14T21:26:35.561Z,88.48
2023-04-14T21:29:04.721Z,88.46
2023-04-14T21:31:33.704Z,88.62
2023-04-14T21:34:02.655Z,88.72
2023-04-14T21:36:31.364Z,89.08
2023-04-14T21:39:00.922Z,89.01
2023-04-14T21:41:30.020Z,89.11
2023-04-14T21:44:00.168Z,89.38
2023-04-14T21:46:28.961Z,89.18
2023-04-14T21:48:57.893Z,89.47
2023-04-14T21:51:27.892Z,89.64
2023-04-14T21:53:57.213Z,89.41
2023-04-14T21:56:25.922Z,89.60
2023-04-14T21:58:54.624Z,89.50
2023-04-14T22:01:24.809Z,89.54
2023-04-14T22:03:56.124Z,89.73
2023-04-14T22:06:25.653Z,89.44
2023-04-14T22:08:54.562Z,89.67
2023-04-14T22:11:23.817Z,89.69
2023-04-14T22:13:52.695Z,89.38
2023-04-14T22:16:21.625Z,89.71
2023-04-14T22:18:51.930Z,89.61
2023-04-14T22:21:20.990Z,89.34
2023-04-14T22:23:49.832Z,89.13
2023-04-14T22:26:18.805Z,89.13
2023-04-14T22:28:47.591Z,89.25
2023-04-14T22:31:16.557Z,89.11
2023-04-14T22:33:45.356Z,88.49
2023-04-14T22:36:15.672Z,88.55
2023-04-14T22:38:48.747Z,88.54
2023-04-14T22:41:17.944Z,88.61
2023-04-14T22:43:46.670Z,88.69
2023-04-14T22:46:17.908Z,88.17
2023-04-14T22:48:46.821Z,88.05
2023-04-14T22:51:17.218Z,88.00
2023-04-14T22:53:46.108Z,87.53
2023-04-14T22:56:14.842Z,87.53
2023-04-14T22:58:43.720Z,87.31
2023-04-14T23:01:22.016Z,86.75
2023-04-14T23:03:52.929Z,87.00
2023-04-14T23:06:24.378Z,87.04
2023-04-14T23:08:53.427Z,86.31
2023-04-14T23:11:22.151Z,86.34
2023-04-14T23:13:52.209Z,86.42
2023-04-14T23:16:21.316Z,86.33
2023-04-14T23:18:52.708Z,86.10
2023-04-14T23:21:23.344Z,86.37
2023-04-14T23:23:52.638Z,86.25
2023-04-14T23:26:22.967Z,86.27
2023-04-14T23:28:53.311Z,85.98
2023-04-14T23:31:22.132Z,85.83
2023-04-14T23:33:53.157Z,86.09
2023-04-14T23:36:24.334Z,85.94
2023-04-14T23:38:54.767Z,85.83
2023-04-14T23:41:24.663Z,86.08
2023-04-14T23:43:53.434Z,86.06
2023-04-14T23:46:22.165Z,85.90
2023-04-14T23:48:53.241Z,86.19
2023-04-14T23:51:24.344Z,85.68
2023-04-14T23:53:53.268Z,85.75
2023-04-14T23:56:22.518Z,85.70
2023-04-14T23:58:52.320Z,85.52
